createdAt,value
2019-02-23T00:01:28.388Z,1.6
2019-02-23T00:05:49.421Z,2
2019-02-23T00:10:21.396Z,2.7
2019-02-23T00:16:02.824Z,3
2019-02-23T00:20:52.345Z,3.3
2019-02-23T00:25:46.493Z,3.3
2019-02-23T00:35:18.219Z,1.4
2019-02-23T00:40:57.793Z,1.7
2019-02-23T00:45:42.072Z,2.4
2019-02-23T00:50:31.854Z,1.8
2019-02-23T00:55:26.792Z,1.8
2019-02-23T01:00:23.802Z,3.2
2019-02-23T01:10:59.182Z,4.5
2019-02-23T01:15:54.151Z,2.2
2019-02-23T01:20:47.830Z,2.3
2019-02-23T01:25:28.760Z,2.9
2019-02-23T01:30:24.666Z,2.7
2019-02-23T01:35:38.370Z,1.5
2019-02-23T01:55:50.033Z,2.9
2019-02-23T02:00:37.742Z,3.5
2019-02-23T02:05:36.391Z,1.8
2019-02-23T02:11:06.150Z,1.9
2019-02-23T02:15:38.392Z,2.5
2019-02-23T02:25:35.117Z,2.4
2019-02-23T02:30:18.331Z,1.8
2019-02-23T02:35:52.858Z,2.1
2019-02-23T02:40:41.910Z,3.7
2019-02-23T02:46:06.070Z,3.8
2019-02-23T02:50:29.704Z,2.4
2019-02-23T02:56:05.750Z,2.8
2019-02-23T03:00:24.765Z,2.5
2019-02-23T03:05:34.904Z,2.8
2019-02-23T03:16:09.590Z,3.3
2019-02-23T03:20:35.865Z,2.7
2019-02-23T03:25:34.229Z,2.9
2019-02-23T03:35:53.281Z,4.2
2019-02-23T03:45:57.960Z,3.1
2019-02-23T03:55:39.591Z,3.6
2019-02-23T04:00:54.789Z,3
2019-02-23T04:05:35.760Z,2.2
2019-02-23T04:10:43.946Z,4.7
2019-02-23T04:15:40.709Z,6.3
2019-02-23T04:20:42.733Z,2.4
2019-02-23T04:27:55.853Z,2.6
2019-02-23T04:30:46.943Z,2.5
2019-02-23T04:36:12.413Z,2.9
2019-02-23T04:40:24.763Z,3.1
2019-02-23T04:45:26.871Z,3.5
2019-02-23T04:50:36.322Z,2.5
2019-02-23T04:55:57.035Z,3.2
2019-02-23T05:01:01.991Z,2
2019-02-23T05:05:42.119Z,4.4
2019-02-23T05:10:28.428Z,2.3
2019-02-23T05:20:36.437Z,2.3
2019-02-23T05:25:40.607Z,3.2
2019-02-23T05:30:27.685Z,3
2019-02-23T05:40:47.934Z,4.2
2019-02-23T05:50:49.414Z,4.7
2019-02-23T05:56:33.351Z,3.2
2019-02-23T06:00:49.434Z,3.3
2019-02-23T06:05:46.033Z,3.6
2019-02-23T06:10:30.691Z,3
2019-02-23T06:15:46.393Z,3.6
2019-02-23T06:20:35.193Z,2.8
2019-02-23T06:25:32.042Z,4.1
2019-02-23T06:30:32.710Z,3
2019-02-23T06:40:24.221Z,1.3
2019-02-23T06:45:49.740Z,1.8
2019-02-23T06:50:30.779Z,3.2
2019-02-23T06:55:24.089Z,3
2019-02-23T07:01:01.748Z,2.4
2019-02-23T07:05:28.599Z,3.2
2019-02-23T07:15:43.166Z,6.5
2019-02-23T07:20:27.005Z,2.7
2019-02-23T07:25:27.184Z,2.9
2019-02-23T07:30:27.717Z,4
2019-02-23T07:35:54.609Z,3.3
2019-02-23T07:40:19.247Z,2.3
2019-02-23T07:45:32.823Z,3.4
2019-02-23T07:50:24.702Z,6.6
2019-02-23T07:55:22.305Z,3.7
2019-02-23T08:00:33.681Z,6.9
2019-02-23T08:10:23.888Z,6.8
2019-02-23T08:15:25.830Z,5
2019-02-23T08:20:50.231Z,5.9
2019-02-23T08:25:27.448Z,3.9
2019-02-23T08:30:31.042Z,7.7
2019-02-23T08:35:26.232Z,7.1
2019-02-23T08:40:24.587Z,4.9
2019-02-23T08:45:33.695Z,5.9
2019-02-23T08:50:49.842Z,5.9
2019-02-23T08:55:50.092Z,7.3
2019-02-23T09:05:31.752Z,5.1
2019-02-23T09:10:29.333Z,7.6
2019-02-23T09:15:23.489Z,5.7
2019-02-23T09:20:38.870Z,7.3
2019-02-23T09:25:30.363Z,3.5
2019-02-23T09:35:35.766Z,3.5
2019-02-23T09:40:41.588Z,5.7
2019-02-23T09:45:18.851Z,5.5
2019-02-23T09:50:17.181Z,5.6
2019-02-23T09:55:25.985Z,5.6
2019-02-23T10:00:20.630Z,3.2
2019-02-23T10:05:45.830Z,5.6
2019-02-23T10:10:17.947Z,5.6
2019-02-23T10:15:22.640Z,5.3
2019-02-23T10:25:18.190Z,3.8
2019-02-23T10:30:41.270Z,6.7
2019-02-23T10:35:39.364Z,4.7
2019-02-23T10:45:54.638Z,4.9
2019-02-23T10:50:35.070Z,4.9
2019-02-23T10:55:35.790Z,5.1
2019-02-23T11:01:06.729Z,5.6
2019-02-23T11:05:45.964Z,4.2
2019-02-23T11:10:22.750Z,5.4
2019-02-23T11:15:28.869Z,5.3
2019-02-23T11:20:57.624Z,5.1
2019-02-23T11:26:41.260Z,5
2019-02-23T11:30:25.114Z,4.3
2019-02-23T11:36:56.791Z,5.2
2019-02-23T11:40:45.010Z,1.7
2019-02-23T11:45:17.672Z,3.7
2019-02-23T11:50:42.934Z,5
2019-02-23T11:55:27.072Z,2.7
2019-02-23T12:00:33.568Z,2.3
2019-02-23T12:05:34.571Z,4.8
2019-02-23T12:10:31.030Z,4.5
2019-02-23T12:15:49.578Z,4.6
2019-02-23T12:20:35.530Z,4.8
2019-02-23T12:25:26.045Z,4.6
2019-02-23T12:30:24.949Z,4.4
2019-02-23T12:36:13.132Z,2.9
2019-02-23T12:40:23.420Z,4.5
2019-02-23T12:45:23.312Z,4.2
2019-02-23T12:50:29.744Z,2.5
2019-02-23T12:55:37.909Z,4.3
2019-02-23T13:00:46.133Z,4.7
2019-02-23T13:05:33.569Z,2.5
2019-02-23T13:10:23.969Z,4.3
2019-02-23T13:15:22.259Z,4.5
2019-02-23T13:20:18.751Z,4.3
2019-02-23T13:25:26.630Z,3.4
2019-02-23T13:30:24.811Z,4.6
2019-02-23T13:35:18.025Z,2.8
2019-02-23T13:40:57.576Z,4.6
2019-02-23T13:45:33.670Z,4.9
2019-02-23T13:50:27.424Z,4.5
2019-02-23T13:55:30.462Z,4.7
2019-02-23T14:00:17.793Z,4.8
2019-02-23T14:05:29.991Z,4.6
2019-02-23T14:10:19.195Z,4.6
2019-02-23T14:15:27.923Z,5.1
2019-02-23T14:20:25.913Z,2.4
2019-02-23T14:25:24.328Z,4.7
2019-02-23T14:30:17.370Z,4.8
2019-02-23T14:35:29.072Z,3.8
2019-02-23T14:40:23.904Z,4.6
2019-02-23T14:45:35.141Z,5.5
2019-02-23T14:50:35.466Z,5
2019-02-23T14:56:05.086Z,3.3
2019-02-23T15:00:36.150Z,5.1
2019-02-23T15:10:29.429Z,5
2019-02-23T15:15:22.822Z,5.2
2019-02-23T15:20:47.765Z,3.8
2019-02-23T15:25:36.068Z,4.8
2019-02-23T15:30:29.693Z,5.3
2019-02-23T15:35:33.431Z,5.3
2019-02-23T15:40:49.088Z,5.1
2019-02-23T15:45:24.256Z,4.9
2019-02-23T15:50:17.530Z,4.4
2019-02-23T15:55:36.227Z,5.8
2019-02-23T16:00:23.704Z,5.4
2019-02-23T16:05:51.807Z,5.5
2019-02-23T16:10:47.350Z,6.9
2019-02-23T16:15:33.140Z,5.9
2019-02-23T16:20:21.080Z,5.5
2019-02-23T16:25:38.189Z,5.6
2019-02-23T16:35:35.077Z,4.6
2019-02-23T16:40:19.369Z,5.4
2019-02-23T16:45:36.189Z,5.3
2019-02-23T16:50:51.674Z,5.3
2019-02-23T16:55:35.028Z,5.4
2019-02-23T17:00:22.930Z,4.4
2019-02-23T17:05:22.608Z,5.3
2019-02-23T17:10:27.708Z,5.7
2019-02-23T17:16:00.451Z,6.1
2019-02-23T17:20:48.590Z,5.1
2019-02-23T17:25:27.111Z,2.5
2019-02-23T17:30:50.581Z,3.8
2019-02-23T17:35:49.294Z,5.5
2019-02-23T17:40:18.615Z,5.7
2019-02-23T17:45:36.630Z,5.6
2019-02-23T17:50:27.400Z,6
2019-02-23T17:55:39.899Z,4.9
2019-02-23T18:00:31.868Z,5.5
2019-02-23T18:05:37.419Z,6.2
2019-02-23T18:10:36.670Z,6.2
2019-02-23T18:16:06.438Z,6.1
2019-02-23T18:20:33.080Z,5.6
2019-02-23T18:25:22.739Z,5.9
2019-02-23T18:35:21.076Z,7
2019-02-23T18:40:27.269Z,3.8
2019-02-23T18:45:32.322Z,6.5
2019-02-23T18:55:20.970Z,6.1
2019-02-23T19:00:27.320Z,6.2
2019-02-23T19:05:56.589Z,5.6
2019-02-23T19:10:23.070Z,5.8
2019-02-23T19:15:26.563Z,4.5
2019-02-23T19:20:37.991Z,6.5
2019-02-23T19:25:41.529Z,6.6
2019-02-23T19:30:37.058Z,6.8
2019-02-23T19:35:18.633Z,6.2
2019-02-23T19:40:36.551Z,6.1
2019-02-23T19:45:34.105Z,7.5
2019-02-23T19:50:20.847Z,6.3
2019-02-23T19:55:52.450Z,6.3
2019-02-23T20:01:00.835Z,5.8
2019-02-23T20:05:22.491Z,6.5
2019-02-23T20:15:45.969Z,3.7
2019-02-23T20:20:18.339Z,6.3
2019-02-23T20:25:29.641Z,6.3
2019-02-23T20:30:28.689Z,6.4
2019-02-23T20:35:23.360Z,6.3
2019-02-23T20:40:41.386Z,6.6
2019-02-23T20:45:37.281Z,5.1
2019-02-23T20:51:04.661Z,6.4
2019-02-23T20:56:11.512Z,6.6
2019-02-23T21:00:53.331Z,6.4
2019-02-23T21:05:53.693Z,6.7
2019-02-23T21:11:01.111Z,5.1
2019-02-23T21:16:02.231Z,6.3
2019-02-23T21:20:30.376Z,6.7
2019-02-23T21:30:24.951Z,4.7
2019-02-23T21:40:38.839Z,5.5
2019-02-23T21:45:39.542Z,6.4
2019-02-23T21:55:26.104Z,6.6
2019-02-23T22:06:00.956Z,5.3
2019-02-23T22:10:22.367Z,6.4
2019-02-23T22:15:20.608Z,3.1
2019-02-23T22:21:15.894Z,4.3
2019-02-23T22:25:46.551Z,6.7
2019-02-23T22:30:37.858Z,6
2019-02-23T22:40:18.201Z,6.7
2019-02-23T22:45:36.471Z,6.5
2019-02-23T22:50:28.031Z,5.6
2019-02-23T22:55:57.460Z,5.4
2019-02-23T23:00:30.842Z,5.5
2019-02-23T23:05:28.710Z,5.9
2019-02-23T23:10:59.889Z,4
2019-02-23T23:15:38.515Z,5.1
2019-02-23T23:30:49.890Z,7.1
2019-02-23T23:35:42.790Z,3.5
2019-02-23T23:40:38.116Z,5.1
2019-02-23T23:46:09.111Z,7
2019-02-23T23:51:34.149Z,5.5
2019-02-23T23:55:48.710Z,4.1
